Time,TemperatureF,DewpointF,PressureIn,WindDirection,WindDirectionDegrees,WindSpeedMPH,WindSpeedGustMPH,Humidity,HourlyPrecipIn,Conditions,Clouds,dailyrainin,SoftwareType,DateUTC
2013-12-11 00:00:00,28.5,23.7,0.00,SE,135,0.0,0.0,82,0.00,,,0.00,WUHU216HW,2013-12-11 05:00:00,
2013-12-11 00:01:00,28.5,23.7,0.00,SE,135,0.0,0.0,82,0.00,,,0.00,WUHU216HW,2013-12-11 05:01:00,
2013-12-11 00:02:00,28.5,23.7,0.00,SE,135,0.0,0.0,82,0.00,,,0.00,WUHU216HW,2013-12-11 05:02:00,
2013-12-11 00:07:00,28.5,23.7,0.00,SE,135,0.0,0.0,82,0.00,,,0.00,WUHU216HW,2013-12-11 05:07:00,
2013-12-11 00:12:00,28.2,23.3,0.00,SE,135,0.0,0.0,82,0.00,,,0.00,WUHU216HW,2013-12-11 05:12:00,
2013-12-11 00:17:00,28.2,23.3,0.00,SE,135,0.0,0.0,82,0.00,,,0.00,WUHU216HW,2013-12-11 05:17:00,
2013-12-11 00:22:00,28.0,23.2,0.00,SE,135,0.0,0.0,82,0.00,,,0.00,WUHU216HW,2013-12-11 05:22:00,
2013-12-11 00:27:00,28.0,23.2,0.00,SE,135,0.0,0.0,82,0.00,,,0.00,WUHU216HW,2013-12-11 05:27:00,
2013-12-11 00:32:00,28.0,23.2,0.00,SE,135,0.0,0.0,82,0.00,,,0.00,WUHU216HW,2013-12-11 05:32:00,
2013-12-11 00:37:00,28.0,23.2,0.00,SE,135,0.0,0.0,82,0.00,,,0.00,WUHU216HW,2013-12-11 05:37:00,
2013-12-11 00:42:00,27.6,22.8,0.00,SE,135,0.0,0.0,82,0.00,,,0.00,WUHU216HW,2013-12-11 05:42:00,
2013-12-11 00:47:00,27.6,22.8,0.00,SE,135,0.0,0.0,82,0.00,,,0.00,WUHU216HW,2013-12-11 05:47:00,
2013-12-11 00:52:00,27.6,22.8,0.00,SE,135,0.0,0.0,82,0.00,,,0.00,WUHU216HW,2013-12-11 05:52:00,
2013-12-11 00:57:00,27.6,23.1,0.00,SE,135,0.0,0.0,83,0.00,,,0.00,WUHU216HW,2013-12-11 05:57:00,
2013-12-11 00:58:00,27.5,22.6,0.00,SE,135,0.0,0.0,82,0.00,,,0.00,WUHU216HW,2013-12-11 05:58:00,
2013-12-11 01:03:00,27.3,22.7,0.00,SE,135,0.0,0.0,83,0.00,,,0.00,WUHU216HW,2013-12-11 06:03:00,
2013-12-11 01:09:00,27.3,22.7,0.00,SE,135,0.0,0.0,83,0.00,,,0.00,WUHU216HW,2013-12-11 06:09:00,
2013-12-11 01:14:00,27.1,22.6,0.00,SE,135,0.0,0.0,83,0.00,,,0.00,WUHU216HW,2013-12-11 06:14:00,
2013-12-11 01:19:00,26.9,22.4,0.00,SE,135,0.0,0.0,83,0.00,,,0.00,WUHU216HW,2013-12-11 06:19:00,
2013-12-11 01:25:00,26.6,22.0,0.00,SE,135,0.0,0.0,83,0.00,,,0.00,WUHU216HW,2013-12-11 06:25:00,
2013-12-11 01:30:00,26.4,21.8,0.00,SE,135,0.0,0.0,83,0.00,,,0.00,WUHU216HW,2013-12-11 06:30:00,
2013-12-11 01:35:00,26.4,21.8,0.00,SE,135,0.0,0.0,83,0.00,,,0.00,WUHU216HW,2013-12-11 06:35:00,
2013-12-11 01:40:00,26.4,21.8,0.00,SE,135,0.0,0.0,83,0.00,,,0.00,WUHU216HW,2013-12-11 06:40:00,
2013-12-11 01:46:00,26.2,21.7,0.00,SE,135,0.0,0.0,83,0.00,,,0.00,WUHU216HW,2013-12-11 06:46:00,
2013-12-11 01:51:00,26.4,22.1,0.00,SE,135,0.0,0.0,84,0.00,,,0.00,WUHU216HW,2013-12-11 06:51:00,
2013-12-11 02:06:00,26.2,22.0,0.00,SE,135,0.0,0.0,84,0.00,,,0.00,WUHU216HW,2013-12-11 07:06:00,
2013-12-11 02:11:00,25.8,21.6,0.00,SE,135,0.0,0.0,84,0.00,,,0.00,WUHU216HW,2013-12-11 07:11:00,
2013-12-11 02:16:00,25.7,21.5,0.00,SE,135,0.0,0.0,84,0.00,,,0.00,WUHU216HW,2013-12-11 07:16:00,
2013-12-11 02:21:00,25.8,21.6,0.00,SE,135,0.0,0.0,84,0.00,,,0.00,WUHU216HW,2013-12-11 07:21:00,
2013-12-11 02:26:00,25.8,21.6,0.00,SE,135,0.0,0.0,84,0.00,,,0.00,WUHU216HW,2013-12-11 07:26:00,
2013-12-11 02:31:00,25.8,21.6,0.00,SE,135,0.0,0.0,84,0.00,,,0.00,WUHU216HW,2013-12-11 07:31:00,
2013-12-11 02:36:00,25.8,21.6,0.00,SE,135,0.0,0.0,84,0.00,,,0.00,WUHU216HW,2013-12-11 07:36:00,
2013-12-11 02:41:00,25.8,21.6,0.00,SE,135,0.0,0.0,84,0.00,,,0.00,WUHU216HW,2013-12-11 07:41:00,
2013-12-11 02:46:00,25.7,21.5,0.00,SE,135,0.0,0.0,84,0.00,,,0.00,WUHU216HW,2013-12-11 07:46:00,
2013-12-11 02:51:00,25.5,21.3,0.00,SE,135,0.0,0.0,84,0.00,,,0.00,WUHU216HW,2013-12-11 07:51:00,
2013-12-11 02:56:00,25.5,21.3,0.00,SE,135,0.0,0.0,84,0.00,,,0.00,WUHU216HW,2013-12-11 07:56:00,
2013-12-11 03:01:00,25.5,21.3,0.00,SE,135,0.0,0.0,84,0.00,,,0.00,WUHU216HW,2013-12-11 08:01:00,
2013-12-11 03:06:00,25.5,21.3,0.00,SE,135,0.0,0.0,84,0.00,,,0.00,WUHU216HW,2013-12-11 08:06:00,
2013-12-11 03:11:00,25.3,21.1,0.00,SE,135,0.0,0.0,84,0.00,,,0.00,WUHU216HW,2013-12-11 08:11:00,
2013-12-11 03:16:00,25.3,21.1,0.00,SE,135,0.0,0.0,84,0.00,,,0.00,WUHU216HW,2013-12-11 08:16:00,
2013-12-11 03:21:00,25.3,21.1,0.00,SE,135,0.0,0.0,84,0.00,,,0.00,WUHU216HW,2013-12-11 08:21:00,
2013-12-11 03:26:00,25.3,21.1,0.00,SE,135,0.0,0.0,84,0.00,,,0.00,WUHU216HW,2013-12-11 08:26:00,
2013-12-11 03:31:00,25.1,20.9,0.00,SE,135,0.0,0.0,84,0.00,,,0.00,WUHU216HW,2013-12-11 08:31:00,
2013-12-11 03:36:00,24.9,20.8,0.00,SE,135,0.0,0.0,84,0.00,,,0.00,WUHU216HW,2013-12-11 08:36:00,
2013-12-11 03:41:00,24.9,20.8,0.00,SE,135,0.0,0.0,84,0.00,,,0.00,WUHU216HW,2013-12-11 08:41:00,
2013-12-11 03:46:00,24.9,20.8,0.00,SE,135,0.0,0.0,84,0.00,,,0.00,WUHU216HW,2013-12-11 08:46:00,
2013-12-11 03:51:00,24.9,20.8,0.00,SE,135,0.0,0.0,84,0.00,,,0.00,WUHU216HW,2013-12-11 08:51:00,
2013-12-11 03:56:00,24.6,20.4,0.00,SE,135,0.0,0.0,84,0.00,,,0.00,WUHU216HW,2013-12-11 08:56:00,
2013-12-11 04:01:00,24.4,20.3,0.00,SE,135,0.0,0.0,84,0.00,,,0.00,WUHU216HW,2013-12-11 09:01:00,
2013-12-11 04:06:00,24.0,19.9,0.00,SE,135,0.0,0.0,84,0.00,,,0.00,WUHU216HW,2013-12-11 09:06:00,
2013-12-11 04:11:00,23.9,19.7,0.00,SE,135,0.0,0.0,84,0.00,,,0.00,WUHU216HW,2013-12-11 09:11:00,
2013-12-11 04:16:00,23.9,20.0,0.00,SE,135,0.0,0.0,85,0.00,,,0.00,WUHU216HW,2013-12-11 09:16:00,
2013-12-11 04:21:00,23.7,19.8,0.00,SE,135,0.0,0.0,85,0.00,,,0.00,WUHU216HW,2013-12-11 09:21:00,
2013-12-11 04:26:00,23.7,19.8,0.00,SE,135,0.0,0.0,85,0.00,,,0.00,WUHU216HW,2013-12-11 09:26:00,
2013-12-11 04:31:00,23.5,19.6,0.00,SE,135,0.0,0.0,85,0.00,,,0.00,WUHU216HW,2013-12-11 09:31:00,
2013-12-11 04:36:00,23.5,19.6,0.00,SE,135,0.0,0.0,85,0.00,,,0.00,WUHU216HW,2013-12-11 09:36:00,
2013-12-11 04:41:00,23.5,19.6,0.00,SE,135,0.0,0.0,85,0.00,,,0.00,WUHU216HW,2013-12-11 09:41:00,
2013-12-11 04:46:00,23.3,19.4,0.00,SE,135,0.0,0.0,85,0.00,,,0.00,WUHU216HW,2013-12-11 09:46:00,
2013-12-11 04:51:00,23.3,19.4,0.00,SE,135,0.0,0.0,85,0.00,,,0.00,WUHU216HW,2013-12-11 09:51:00,
2013-12-11 04:56:00,23.3,19.4,0.00,SE,135,0.0,0.0,85,0.00,,,0.00,WUHU216HW,2013-12-11 09:56:00,
2013-12-11 05:01:00,23.1,19.4,0.00,SE,135,0.0,0.0,85,0.00,,,0.00,WUHU216HW,2013-12-11 10:01:00,
2013-12-11 05:06:00,23.1,19.4,0.00,SE,135,0.0,0.0,85,0.00,,,0.00,WUHU216HW,2013-12-11 10:06:00,
2013-12-11 05:11:00,23.3,19.3,0.00,SE,135,0.0,0.0,85,0.00,,,0.00,WUHU216HW,2013-12-11 10:11:00,
2013-12-11 05:16:00,23.1,19.3,0.00,SE,135,0.0,0.0,85,0.00,,,0.00,WUHU216HW,2013-12-11 10:16:00,
2013-12-11 05:21:00,23.0,19.1,0.00,SE,135,0.0,0.0,85,0.00,,,0.00,WUHU216HW,2013-12-11 10:21:00,
2013-12-11 05:26:00,23.0,19.1,0.00,SE,135,0.0,0.0,85,0.00,,,0.00,WUHU216HW,2013-12-11 10:26:00,
2013-12-11 05:31:00,23.1,19.3,0.00,SE,135,0.0,0.0,85,0.00,,,0.00,WUHU216HW,2013-12-11 10:31:00,
2013-12-11 05:36:00,23.1,19.3,0.00,SE,135,0.0,0.0,85,0.00,,,0.00,WUHU216HW,2013-12-11 10:36:00,
2013-12-11 05:41:00,22.8,18.9,0.00,SE,135,0.0,0.0,85,0.00,,,0.00,WUHU216HW,2013-12-11 10:41:00,
2013-12-11 05:46:00,22.8,18.9,0.00,SE,135,0.0,0.0,85,0.00,,,0.00,WUHU216HW,2013-12-11 10:46:00,
2013-12-11 05:51:00,22.8,18.9,0.00,SE,135,0.0,0.0,85,0.00,,,0.00,WUHU216HW,2013-12-11 10:51:00,
2013-12-11 05:56:00,22.6,18.7,0.00,SE,135,0.0,0.0,85,0.00,,,0.00,WUHU216HW,2013-12-11 10:56:00,
2013-12-11 06:01:00,22.6,18.7,0.00,SE,135,0.0,0.0,85,0.00,,,0.00,WUHU216HW,2013-12-11 11:01:00,
2013-12-11 06:06:00,22.4,18.5,0.00,SE,135,0.0,0.0,85,0.00,,,0.00,WUHU216HW,2013-12-11 11:06:00,
2013-12-11 06:11:00,22.4,18.5,0.00,SE,135,0.0,0.0,85,0.00,,,0.00,WUHU216HW,2013-12-11 11:11:00,
2013-12-11 06:16:00,22.4,18.5,0.00,SE,135,0.0,0.0,85,0.00,,,0.00,WUHU216HW,2013-12-11 11:16:00,
2013-12-11 06:21:00,22.2,18.4,0.00,SE,135,0.0,0.0,85,0.00,,,0.00,WUHU216HW,2013-12-11 11:21:00,
2013-12-11 06:26:00,22.2,18.4,0.00,SE,135,0.0,0.0,85,0.00,,,0.00,WUHU216HW,2013-12-11 11:26:00,
2013-12-11 06:31:00,22.1,18.2,0.00,SE,135,0.0,0.0,85,0.00,,,0.00,WUHU216HW,2013-12-11 11:31:00,
2013-12-11 06:36:00,22.1,18.2,0.00,SE,135,0.0,0.0,85,0.00,,,0.00,WUHU216HW,2013-12-11 11:36:00,
2013-12-11 06:41:00,22.1,18.2,0.00,SE,135,0.0,0.0,85,0.00,,,0.00,WUHU216HW,2013-12-11 11:41:00,
2013-12-11 06:46:00,22.1,18.2,0.00,SE,135,0.0,0.0,85,0.00,,,0.00,WUHU216HW,2013-12-11 11:46:00,
2013-12-11 06:51:00,21.9,18.0,0.00,SE,135,0.0,0.0,85,0.00,,,0.00,WUHU216HW,2013-12-11 11:51:00,
2013-12-11 06:56:00,21.9,18.0,0.00,SE,135,0.0,0.0,85,0.00,,,0.00,WUHU216HW,2013-12-11 11:56:00,
2013-12-11 07:01:00,21.7,17.8,0.00,SE,135,0.0,0.0,85,0.00,,,0.00,WUHU216HW,2013-12-11 12:01:00,
2013-12-11 07:07:00,21.7,17.8,0.00,SE,135,0.0,0.0,85,0.00,,,0.00,WUHU216HW,2013-12-11 12:07:00,
2013-12-11 07:12:00,21.7,17.8,0.00,SE,135,0.0,0.0,85,0.00,,,0.00,WUHU216HW,2013-12-11 12:12:00,
2013-12-11 07:17:00,21.5,17.6,0.00,SE,135,0.0,0.0,85,0.00,,,0.00,WUHU216HW,2013-12-11 12:17:00,
2013-12-11 07:22:00,21.3,17.5,0.00,SE,135,0.0,0.0,85,0.00,,,0.00,WUHU216HW,2013-12-11 12:22:00,
2013-12-11 07:27:00,21.5,17.6,0.00,SE,135,0.0,0.0,85,0.00,,,0.00,WUHU216HW,2013-12-11 12:27:00,
2013-12-11 07:32:00,21.5,17.6,0.00,SE,135,0.0,0.0,85,0.00,,,0.00,WUHU216HW,2013-12-11 12:32:00,
2013-12-11 07:37:00,21.7,17.8,0.00,SE,135,0.0,0.0,85,0.00,,,0.00,WUHU216HW,2013-12-11 12:37:00,
2013-12-11 07:42:00,21.7,17.6,0.00,SE,135,0.0,0.0,85,0.00,,,0.00,WUHU216HW,2013-12-11 12:42:00,
2013-12-11 07:47:00,21.5,17.6,0.00,SE,135,0.0,0.0,85,0.00,,,0.00,WUHU216HW,2013-12-11 12:47:00,
2013-12-11 07:52:00,21.3,17.5,0.00,SE,135,0.0,0.0,85,0.00,,,0.00,WUHU216HW,2013-12-11 12:52:00,
2013-12-11 07:57:00,21.3,17.5,0.00,SE,135,0.0,0.0,85,0.00,,,0.00,WUHU216HW,2013-12-11 12:57:00,
2013-12-11 08:02:00,21.3,17.5,0.00,SE,135,0.0,0.0,85,0.00,,,0.00,WUHU216HW,2013-12-11 13:02:00,
2013-12-11 08:07:00,21.3,17.5,0.00,SE,135,0.0,0.0,85,0.00,,,0.00,WUHU216HW,2013-12-11 13:07:00,
2013-12-11 08:12:00,21.5,17.6,0.00,SE,135,0.0,0.0,85,0.00,,,0.00,WUHU216HW,2013-12-11 13:12:00,
2013-12-11 08:17:00,21.5,17.6,0.00,SE,135,0.0,0.0,85,0.00,,,0.00,WUHU216HW,2013-12-11 13:17:00,
2013-12-11 08:22:00,21.7,17.6,0.00,SE,135,0.0,0.0,85,0.00,,,0.00,WUHU216HW,2013-12-11 13:22:00,
2013-12-11 08:27:00,21.7,17.8,0.00,SE,135,0.0,0.0,85,0.00,,,0.00,WUHU216HW,2013-12-11 13:27:00,
2013-12-11 08:32:00,21.9,18.0,0.00,SE,135,0.0,0.0,85,0.00,,,0.00,WUHU216HW,2013-12-11 13:32:00,
2013-12-11 08:37:00,22.1,18.2,0.00,SE,135,0.0,0.0,85,0.00,,,0.00,WUHU216HW,2013-12-11 13:37:00,
2013-12-11 08:42:00,22.2,18.4,0.00,SE,135,0.0,0.0,85,0.00,,,0.00,WUHU216HW,2013-12-11 13:42:00,
2013-12-11 08:47:00,22.6,18.7,0.00,SE,135,0.0,0.0,85,0.00,,,0.00,WUHU216HW,2013-12-11 13:47:00,
2013-12-11 08:52:00,22.8,19.2,0.00,SE,135,0.0,0.0,86,0.00,,,0.00,WUHU216HW,2013-12-11 13:52:00,
2013-12-11 08:57:00,23.1,19.5,0.00,SE,135,0.0,0.0,86,0.00,,,0.00,WUHU216HW,2013-12-11 13:57:00,
2013-12-11 09:02:00,23.5,19.9,0.00,SE,135,0.0,0.0,86,0.00,,,0.00,WUHU216HW,2013-12-11 14:02:00,
2013-12-11 09:07:00,23.9,20.3,0.00,SE,135,0.0,0.0,86,0.00,,,0.00,WUHU216HW,2013-12-11 14:07:00,
2013-12-11 09:12:00,24.2,20.8,0.00,SE,135,0.0,0.0,86,0.00,,,0.00,WUHU216HW,2013-12-11 14:12:00,
2013-12-11 09:17:00,24.6,21.0,0.00,SE,135,0.0,0.0,86,0.00,,,0.00,WUHU216HW,2013-12-11 14:17:00,
2013-12-11 09:22:00,25.1,21.5,0.00,SE,135,0.0,0.0,86,0.00,,,0.00,WUHU216HW,2013-12-11 14:22:00,
2013-12-11 09:27:00,25.5,21.8,0.00,SE,135,0.0,0.0,86,0.00,,,0.00,WUHU216HW,2013-12-11 14:27:00,
2013-12-11 09:32:00,26.0,22.4,0.00,SE,135,0.0,0.0,86,0.00,,,0.00,WUHU216HW,2013-12-11 14:32:00,
2013-12-11 09:37:00,26.4,22.7,0.00,SE,135,0.0,0.0,86,0.00,,,0.00,WUHU216HW,2013-12-11 14:37:00,
2013-12-11 09:42:00,26.7,23.1,0.00,SE,135,0.0,0.0,86,0.00,,,0.00,WUHU216HW,2013-12-11 14:42:00,
2013-12-11 09:47:00,27.3,23.6,0.00,SE,135,0.0,0.0,86,0.00,,,0.00,WUHU216HW,2013-12-11 14:47:00,
2013-12-11 09:52:00,27.6,24.0,0.00,SE,135,0.0,0.0,86,0.00,,,0.00,WUHU216HW,2013-12-11 14:52:00,
2013-12-11 09:57:00,28.0,24.0,0.00,SE,135,0.0,0.0,85,0.00,,,0.00,WUHU216HW,2013-12-11 14:57:00,
2013-12-11 10:02:00,28.2,24.2,0.00,SE,135,0.0,0.0,85,0.00,,,0.00,WUHU216HW,2013-12-11 15:02:00,
2013-12-11 10:07:00,28.9,24.9,0.00,North,0,0.0,0.0,85,0.00,,,0.00,WUHU216HW,2013-12-11 15:07:00,
2013-12-11 10:12:00,29.1,25.1,0.00,SE,135,0.0,0.0,85,0.00,,,0.00,WUHU216HW,2013-12-11 15:12:00,
2013-12-11 10:17:00,29.4,25.2,0.00,SE,135,0.0,0.0,84,0.00,,,0.00,WUHU216HW,2013-12-11 15:17:00,
2013-12-11 10:22:00,30.0,25.7,0.00,SE,135,0.0,0.0,84,0.00,,,0.00,WUHU216HW,2013-12-11 15:22:00,
2013-12-11 10:27:00,31.2,26.5,0.00,SE,135,0.0,0.0,83,0.00,,,0.00,WUHU216HW,2013-12-11 15:27:00,
2013-12-11 10:32:00,31.8,26.9,0.00,SE,135,0.0,0.0,82,0.00,,,0.00,WUHU216HW,2013-12-11 15:32:00,
2013-12-11 10:37:00,32.1,27.3,0.00,SE,135,0.0,0.0,82,0.00,,,0.00,WUHU216HW,2013-12-11 15:37:00,
2013-12-11 10:42:00,32.7,27.5,0.00,SE,135,0.0,0.0,81,0.00,,,0.00,WUHU216HW,2013-12-11 15:42:00,
2013-12-11 10:47:00,32.9,27.6,0.00,SE,135,0.0,0.0,81,0.00,,,0.00,WUHU216HW,2013-12-11 15:47:00,
2013-12-11 10:52:00,33.9,28.4,0.00,SE,135,0.0,0.0,80,0.00,,,0.00,WUHU216HW,2013-12-11 15:52:00,
2013-12-11 10:57:00,33.8,27.8,0.00,SE,135,0.0,0.0,79,0.00,,,0.00,WUHU216HW,2013-12-11 15:57:00,
2013-12-11 11:02:00,33.8,27.8,0.00,SE,135,0.0,0.0,79,0.00,,,0.00,WUHU216HW,2013-12-11 16:02:00,
2013-12-11 11:07:00,33.9,27.7,0.00,SE,135,0.0,0.0,78,0.00,,,0.00,WUHU216HW,2013-12-11 16:07:00,
2013-12-11 11:12:00,34.3,28.1,0.00,SE,135,0.0,0.0,78,0.00,,,0.00,WUHU216HW,2013-12-11 16:12:00,
2013-12-11 11:17:00,35.6,29.0,0.00,SE,135,0.0,0.0,77,0.00,,,0.00,WUHU216HW,2013-12-11 16:17:00,
2013-12-11 11:22:00,36.6,29.8,0.00,SE,135,0.0,0.0,76,0.00,,,0.00,WUHU216HW,2013-12-11 16:22:00,
2013-12-11 11:27:00,37.5,30.3,0.00,SE,135,0.0,0.0,75,0.00,,,0.00,WUHU216HW,2013-12-11 16:27:00,
2013-12-11 11:32:00,37.9,30.3,0.00,SE,135,0.0,0.0,74,0.00,,,0.00,WUHU216HW,2013-12-11 16:32:00,
2013-12-11 11:37:00,38.1,30.2,0.00,SE,135,0.0,0.0,73,0.00,,,0.00,WUHU216HW,2013-12-11 16:37:00,
2013-12-11 11:42:00,39.0,30.8,0.00,SE,135,0.0,0.0,72,0.00,,,0.00,WUHU216HW,2013-12-11 16:42:00,
2013-12-11 11:47:00,40.8,31.8,0.00,SE,135,0.0,0.0,70,0.00,,,0.00,WUHU216HW,2013-12-11 16:47:00,
2013-12-11 11:52:00,41.1,31.7,0.00,SE,135,0.0,0.0,69,0.00,,,0.00,WUHU216HW,2013-12-11 16:52:00,
2013-12-11 11:57:00,41.9,31.9,0.00,SE,135,0.0,0.0,68,0.00,,,0.00,WUHU216HW,2013-12-11 16:57:00,
2013-12-11 12:02:00,42.6,32.0,0.00,SE,135,0.0,0.0,66,0.00,,,0.00,WUHU216HW,2013-12-11 17:02:00,
2013-12-11 12:07:00,42.6,31.6,0.00,SE,135,0.0,0.0,65,0.00,,,0.00,WUHU216HW,2013-12-11 17:07:00,
2013-12-11 12:12:00,41.1,30.6,0.00,SE,135,0.0,0.0,66,0.00,,,0.00,WUHU216HW,2013-12-11 17:12:00,
2013-12-11 12:17:00,39.9,29.7,0.00,SE,135,0.0,0.0,67,0.00,,,0.00,WUHU216HW,2013-12-11 17:17:00,
2013-12-11 12:22:00,39.0,28.9,0.00,SE,135,0.0,0.0,67,0.00,,,0.00,WUHU216HW,2013-12-11 17:22:00,
2013-12-11 12:27:00,38.4,28.4,0.00,SE,135,0.0,0.0,67,0.00,,,0.00,WUHU216HW,2013-12-11 17:27:00,
2013-12-11 12:32:00,38.3,28.6,0.00,SE,135,0.0,0.0,68,0.00,,,0.00,WUHU216HW,2013-12-11 17:32:00,
2013-12-11 12:37:00,38.3,29.0,0.00,SE,135,0.0,0.0,69,0.00,,,0.00,WUHU216HW,2013-12-11 17:37:00,
2013-12-11 12:42:00,38.4,29.0,0.00,SE,135,0.0,0.0,69,0.00,,,0.00,WUHU216HW,2013-12-11 17:42:00,
2013-12-11 12:47:00,38.8,29.4,0.00,SE,135,0.0,0.0,69,0.00,,,0.00,WUHU216HW,2013-12-11 17:47:00,
2013-12-11 12:52:00,38.8,29.4,0.00,SE,135,0.0,0.0,69,0.00,,,0.00,WUHU216HW,2013-12-11 17:52:00,
2013-12-11 12:57:00,39.0,29.6,0.00,SE,135,0.0,0.0,69,0.00,,,0.00,WUHU216HW,2013-12-11 17:57:00,
2013-12-11 13:02:00,39.5,29.8,0.00,SE,135,0.0,0.0,68,0.00,,,0.00,WUHU216HW,2013-12-11 18:02:00,
2013-12-11 13:07:00,39.9,30.1,0.00,SE,135,0.0,0.0,68,0.00,,,0.00,WUHU216HW,2013-12-11 18:07:00,
2013-12-11 13:12:00,40.1,30.3,0.00,SE,135,0.0,0.0,68,0.00,,,0.00,WUHU216HW,2013-12-11 18:12:00,
2013-12-11 13:17:00,40.4,30.7,0.00,SE,135,0.0,0.0,68,0.00,,,0.00,WUHU216HW,2013-12-11 18:17:00,
2013-12-11 13:22:00,40.8,30.6,0.00,SE,135,0.0,0.0,67,0.00,,,0.00,WUHU216HW,2013-12-11 18:22:00,
2013-12-11 13:27:00,41.1,31.0,0.00,SE,135,0.0,0.0,67,0.00,,,0.00,WUHU216HW,2013-12-11 18:27:00,
2013-12-11 13:32:00,41.5,30.8,0.00,SE,135,0.0,0.0,66,0.00,,,0.00,WUHU216HW,2013-12-11 18:32:00,
2013-12-11 13:37:00,41.7,31.1,0.00,SE,135,0.0,0.0,66,0.00,,,0.00,WUHU216HW,2013-12-11 18:37:00,
2013-12-11 13:42:00,42.0,31.1,0.00,SE,135,0.0,0.0,65,0.00,,,0.00,WUHU216HW,2013-12-11 18:42:00,
2013-12-11 13:47:00,42.0,31.1,0.00,SE,135,0.0,0.0,65,0.00,,,0.00,WUHU216HW,2013-12-11 18:47:00,
2013-12-11 13:52:00,42.4,31.4,0.00,SE,135,0.0,0.0,65,0.00,,,0.00,WUHU216HW,2013-12-11 18:52:00,
2013-12-11 13:57:00,42.6,31.2,0.00,SE,135,0.0,0.0,64,0.00,,,0.00,WUHU216HW,2013-12-11 18:57:00,
2013-12-11 14:02:00,42.6,31.2,0.00,SE,135,0.0,0.0,64,0.00,,,0.00,WUHU216HW,2013-12-11 19:02:00,
2013-12-11 14:07:00,42.8,31.2,0.00,SE,135,0.0,0.0,64,0.00,,,0.00,WUHU216HW,2013-12-11 19:07:00,
2013-12-11 14:12:00,42.9,31.5,0.00,SE,135,0.0,0.0,64,0.00,,,0.00,WUHU216HW,2013-12-11 19:12:00,
2013-12-11 14:17:00,42.9,30.3,0.00,SE,135,0.0,0.0,61,0.00,,,0.00,WUHU216HW,2013-12-11 19:17:00,
2013-12-11 14:22:00,43.1,30.7,0.00,SE,135,0.0,0.0,61,0.00,,,0.00,WUHU216HW,2013-12-11 19:22:00,
2013-12-11 14:27:00,43.5,30.9,0.00,SE,135,0.0,0.0,61,0.00,,,0.00,WUHU216HW,2013-12-11 19:27:00,
2013-12-11 14:32:00,43.7,31.1,0.00,SE,135,0.0,0.0,61,0.00,,,0.00,WUHU216HW,2013-12-11 19:32:00,
2013-12-11 14:37:00,43.7,31.1,0.00,North,0,0.0,0.0,61,0.00,,,0.00,WUHU216HW,2013-12-11 19:37:00,
2013-12-11 14:42:00,43.7,31.1,0.00,SE,135,0.0,0.0,61,0.00,,,0.00,WUHU216HW,2013-12-11 19:42:00,
2013-12-11 14:47:00,43.7,31.2,0.00,SE,135,0.0,0.0,61,0.00,,,0.00,WUHU216HW,2013-12-11 19:47:00,
2013-12-11 14:52:00,43.8,31.2,0.00,SE,135,0.0,0.0,61,0.00,,,0.00,WUHU216HW,2013-12-11 19:52:00,
2013-12-11 14:58:00,44.0,31.1,0.00,SE,135,0.0,0.0,60,0.00,,,0.00,WUHU216HW,2013-12-11 19:58:00,
2013-12-11 15:03:00,44.0,31.4,0.00,SE,135,0.0,0.0,61,0.00,,,0.00,WUHU216HW,2013-12-11 20:03:00,
2013-12-11 15:08:00,44.2,31.2,0.00,SE,135,0.0,0.0,60,0.00,,,0.00,WUHU216HW,2013-12-11 20:08:00,
2013-12-11 15:13:00,44.2,31.2,0.00,SE,135,0.0,0.0,60,0.00,,,0.00,WUHU216HW,2013-12-11 20:13:00,
2013-12-11 15:18:00,44.2,31.2,0.00,East,90,0.0,0.0,60,0.00,,,0.00,WUHU216HW,2013-12-11 20:18:00,
2013-12-11 15:23:00,44.4,31.4,0.00,East,90,0.0,0.0,60,0.00,,,0.00,WUHU216HW,2013-12-11 20:23:00,
2013-12-11 15:28:00,44.4,31.4,0.00,ESE,113,0.0,0.0,60,0.00,,,0.00,WUHU216HW,2013-12-11 20:28:00,
2013-12-11 15:33:00,44.4,31.0,0.00,ESE,113,0.0,0.0,59,0.00,,,0.00,WUHU216HW,2013-12-11 20:33:00,
2013-12-11 15:38:00,44.4,31.0,0.00,ESE,113,0.0,0.0,59,0.00,,,0.00,WUHU216HW,2013-12-11 20:38:00,
2013-12-11 15:43:00,44.4,31.0,0.00,ESE,113,0.0,0.0,59,0.00,,,0.00,WUHU216HW,2013-12-11 20:43:00,
2013-12-11 15:48:00,44.2,30.8,0.00,ESE,113,0.0,0.0,59,0.00,,,0.00,WUHU216HW,2013-12-11 20:48:00,
2013-12-11 15:53:00,43.8,30.0,0.00,ESE,113,0.0,0.0,58,0.00,,,0.00,WUHU216HW,2013-12-11 20:53:00,
2013-12-11 15:58:00,43.8,30.0,0.00,ESE,113,0.0,0.0,58,0.00,,,0.00,WUHU216HW,2013-12-11 20:58:00,
2013-12-11 16:03:00,43.5,29.6,0.00,ESE,113,0.0,0.0,58,0.00,,,0.00,WUHU216HW,2013-12-11 21:03:00,
2013-12-11 16:08:00,43.5,29.6,0.00,ESE,113,0.0,0.0,58,0.00,,,0.00,WUHU216HW,2013-12-11 21:08:00,
2013-12-11 16:13:00,43.1,29.3,0.00,ESE,113,0.0,0.0,58,0.00,,,0.00,WUHU216HW,2013-12-11 21:13:00,
2013-12-11 16:18:00,43.1,29.1,0.00,ESE,113,0.0,0.0,58,0.00,,,0.00,WUHU216HW,2013-12-11 21:18:00,
2013-12-11 16:23:00,42.8,28.9,0.00,ESE,113,0.0,0.0,58,0.00,,,0.00,WUHU216HW,2013-12-11 21:23:00,
2013-12-11 16:28:00,42.6,28.7,0.00,ESE,113,0.0,0.0,58,0.00,,,0.00,WUHU216HW,2013-12-11 21:28:00,
2013-12-11 16:33:00,42.6,28.7,0.00,ESE,113,0.0,0.0,58,0.00,,,0.00,WUHU216HW,2013-12-11 21:33:00,
2013-12-11 16:38:00,42.4,28.6,0.00,ESE,113,0.0,0.0,58,0.00,,,0.00,WUHU216HW,2013-12-11 21:38:00,
2013-12-11 16:43:00,42.0,28.7,0.00,ESE,113,0.0,0.0,59,0.00,,,0.00,WUHU216HW,2013-12-11 21:43:00,
2013-12-11 16:48:00,41.9,28.5,0.00,ESE,113,0.0,0.0,59,0.00,,,0.00,WUHU216HW,2013-12-11 21:48:00,
2013-12-11 16:53:00,41.9,28.5,0.00,ESE,113,0.0,0.0,59,0.00,,,0.00,WUHU216HW,2013-12-11 21:53:00,
2013-12-11 16:58:00,41.7,28.4,0.00,ESE,113,0.0,0.0,59,0.00,,,0.00,WUHU216HW,2013-12-11 21:58:00,
2013-12-11 17:03:00,41.5,28.7,0.00,ESE,113,0.0,0.0,60,0.00,,,0.00,WUHU216HW,2013-12-11 22:03:00,
2013-12-11 17:08:00,41.5,28.7,0.00,ESE,113,0.0,0.0,60,0.00,,,0.00,WUHU216HW,2013-12-11 22:08:00,
2013-12-11 17:13:00,41.3,28.5,0.00,ESE,113,0.0,0.0,60,0.00,,,0.00,WUHU216HW,2013-12-11 22:13:00,
2013-12-11 17:18:00,41.3,28.5,0.00,ESE,113,0.0,0.0,60,0.00,,,0.00,WUHU216HW,2013-12-11 22:18:00,
2013-12-11 17:23:00,41.1,28.3,0.00,ESE,113,0.0,0.0,60,0.00,,,0.00,WUHU216HW,2013-12-11 22:23:00,
2013-12-11 17:28:00,41.1,28.3,0.00,ESE,113,0.0,0.0,60,0.00,,,0.00,WUHU216HW,2013-12-11 22:28:00,
2013-12-11 17:33:00,41.1,28.3,0.00,ESE,113,0.0,0.0,60,0.00,,,0.00,WUHU216HW,2013-12-11 22:33:00,
2013-12-11 17:38:00,41.1,27.9,0.00,ESE,113,0.0,0.0,59,0.00,,,0.00,WUHU216HW,2013-12-11 22:38:00,
2013-12-11 17:43:00,41.0,27.7,0.00,ESE,113,0.0,0.0,59,0.00,,,0.00,WUHU216HW,2013-12-11 22:43:00,
2013-12-11 17:48:00,40.8,27.5,0.00,ESE,113,0.0,0.0,59,0.00,,,0.00,WUHU216HW,2013-12-11 22:48:00,
2013-12-11 17:53:00,40.6,27.4,0.00,ESE,113,0.0,0.0,59,0.00,,,0.00,WUHU216HW,2013-12-11 22:53:00,
2013-12-11 17:58:00,40.4,27.2,0.00,ESE,113,0.0,0.0,59,0.00,,,0.00,WUHU216HW,2013-12-11 22:58:00,
2013-12-11 18:03:00,40.1,26.8,0.00,ESE,113,0.0,0.0,59,0.00,,,0.00,WUHU216HW,2013-12-11 23:03:00,
2013-12-11 18:08:00,39.9,26.6,0.00,ESE,113,0.0,0.0,59,0.00,,,0.00,WUHU216HW,2013-12-11 23:08:00,
2013-12-11 18:13:00,39.7,26.5,0.00,SW,225,0.0,0.0,59,0.00,,,0.00,WUHU216HW,2013-12-11 23:13:00,
2013-12-11 18:18:00,39.7,26.0,0.00,SW,225,0.0,0.0,58,0.00,,,0.00,WUHU216HW,2013-12-11 23:18:00,
2013-12-11 18:23:00,39.5,26.3,0.00,SW,225,0.0,0.0,59,0.00,,,0.00,WUHU216HW,2013-12-11 23:23:00,
2013-12-11 18:28:00,39.3,25.7,0.00,SW,225,0.0,0.0,58,0.00,,,0.00,WUHU216HW,2013-12-11 23:28:00,
2013-12-11 18:33:00,39.3,26.1,0.00,SW,225,0.0,0.0,59,0.00,,,0.00,WUHU216HW,2013-12-11 23:33:00,
2013-12-11 18:38:00,39.3,26.1,0.00,South,180,0.0,0.0,59,0.00,,,0.00,WUHU216HW,2013-12-11 23:38:00,
2013-12-11 18:43:00,39.3,26.1,0.00,South,180,0.0,0.0,59,0.00,,,0.00,WUHU216HW,2013-12-11 23:43:00,
2013-12-11 18:48:00,39.3,25.7,0.00,South,180,0.0,0.0,58,0.00,,,0.00,WUHU216HW,2013-12-11 23:48:00,
2013-12-11 18:53:00,39.3,25.7,0.00,South,180,0.0,0.0,58,0.00,,,0.00,WUHU216HW,2013-12-11 23:53:00,
2013-12-11 18:58:00,39.5,25.8,0.00,South,180,0.0,0.0,58,0.00,,,0.00,WUHU216HW,2013-12-11 23:58:00,
2013-12-11 19:03:00,39.3,25.7,0.00,SSW,203,0.0,0.0,58,0.00,,,0.00,WUHU216HW,2013-12-12 00:03:00,
2013-12-11 19:08:00,39.3,25.2,0.00,South,180,0.0,0.0,57,0.00,,,0.00,WUHU216HW,2013-12-12 00:08:00,
2013-12-11 19:13:00,39.2,24.9,0.00,South,180,0.0,0.0,57,0.00,,,0.00,WUHU216HW,2013-12-12 00:13:00,
2013-12-11 19:18:00,39.0,24.9,0.00,South,180,0.0,0.0,57,0.00,,,0.00,WUHU216HW,2013-12-12 00:18:00,
2013-12-11 19:23:00,38.8,24.8,0.00,South,180,0.0,0.0,57,0.00,,,0.00,WUHU216HW,2013-12-12 00:23:00,
2013-12-11 19:28:00,38.8,24.8,0.00,South,180,0.0,0.0,57,0.00,,,0.00,WUHU216HW,2013-12-12 00:28:00,
2013-12-11 19:33:00,38.8,25.2,0.00,South,180,0.0,0.0,58,0.00,,,0.00,WUHU216HW,2013-12-12 00:33:00,
2013-12-11 19:38:00,38.4,24.9,0.00,SSE,158,0.0,0.0,58,0.00,,,0.00,WUHU216HW,2013-12-12 00:38:00,
2013-12-11 19:43:00,38.4,24.9,0.00,SSE,158,0.0,0.0,58,0.00,,,0.00,WUHU216HW,2013-12-12 00:43:00,
2013-12-11 19:48:00,38.3,24.7,0.00,SSE,158,0.0,0.0,58,0.00,,,0.00,WUHU216HW,2013-12-12 00:48:00,
2013-12-11 19:53:00,38.1,24.5,0.00,NW,315,0.0,0.0,58,0.00,,,0.00,WUHU216HW,2013-12-12 00:53:00,
2013-12-11 19:58:00,38.1,24.5,0.00,NW,315,0.0,0.0,58,0.00,,,0.00,WUHU216HW,2013-12-12 00:58:00,
2013-12-11 20:03:00,37.9,24.4,0.00,NW,315,0.0,0.0,58,0.00,,,0.00,WUHU216HW,2013-12-12 01:03:00,
2013-12-11 20:08:00,37.9,24.4,0.00,NW,315,0.0,0.0,58,0.00,,,0.00,WUHU216HW,2013-12-12 01:08:00,
2013-12-11 20:13:00,37.9,24.4,0.00,NW,315,0.0,0.0,58,0.00,,,0.00,WUHU216HW,2013-12-12 01:13:00,
2013-12-11 20:18:00,37.9,24.4,0.00,NW,315,0.0,0.0,58,0.00,,,0.00,WUHU216HW,2013-12-12 01:18:00,
2013-12-11 20:23:00,37.7,24.2,0.00,NW,315,0.0,0.0,58,0.00,,,0.00,WUHU216HW,2013-12-12 01:23:00,
2013-12-11 20:28:00,37.5,24.0,0.00,NW,315,0.0,0.0,58,0.00,,,0.00,WUHU216HW,2013-12-12 01:28:00,
2013-12-11 20:33:00,37.5,24.0,0.00,NW,315,0.0,0.0,58,0.00,,,0.00,WUHU216HW,2013-12-12 01:33:00,
2013-12-11 20:38:00,37.4,24.3,0.00,NW,315,0.0,0.0,59,0.00,,,0.00,WUHU216HW,2013-12-12 01:38:00,
2013-12-11 20:43:00,37.4,24.3,0.00,NW,315,0.0,0.0,59,0.00,,,0.00,WUHU216HW,2013-12-12 01:43:00,
2013-12-11 20:48:00,37.2,24.2,0.00,NW,315,0.0,0.0,59,0.00,,,0.00,WUHU216HW,2013-12-12 01:48:00,
2013-12-11 20:53:00,37.2,24.2,0.00,NW,315,0.0,0.0,59,0.00,,,0.00,WUHU216HW,2013-12-12 01:53:00,
2013-12-11 20:58:00,37.2,24.2,0.00,NW,315,0.0,0.0,59,0.00,,,0.00,WUHU216HW,2013-12-12 01:58:00,
2013-12-11 21:03:00,37.2,24.2,0.00,NW,315,0.0,0.0,59,0.00,,,0.00,WUHU216HW,2013-12-12 02:03:00,
2013-12-11 21:08:00,37.0,24.0,0.00,NNW,338,0.0,0.0,59,0.00,,,0.00,WUHU216HW,2013-12-12 02:08:00,
2013-12-11 21:13:00,37.0,24.0,0.00,WNW,293,0.0,0.0,59,0.00,,,0.00,WUHU216HW,2013-12-12 02:13:00,
2013-12-11 21:18:00,37.0,24.0,0.00,WNW,293,0.0,0.0,59,0.00,,,0.00,WUHU216HW,2013-12-12 02:18:00,
2013-12-11 21:23:00,37.0,24.0,0.00,WNW,293,0.0,0.0,59,0.00,,,0.00,WUHU216HW,2013-12-12 02:23:00,
2013-12-11 21:28:00,36.6,23.7,0.00,WNW,293,0.0,0.0,59,0.00,,,0.00,WUHU216HW,2013-12-12 02:28:00,
2013-12-11 21:33:00,36.5,23.5,0.00,NW,315,0.0,0.0,59,0.00,,,0.00,WUHU216HW,2013-12-12 02:33:00,
2013-12-11 21:38:00,36.3,23.3,0.00,NW,315,0.0,0.0,59,0.00,,,0.00,WUHU216HW,2013-12-12 02:38:00,
2013-12-11 21:43:00,36.3,23.3,0.00,NW,315,0.0,0.0,59,0.00,,,0.00,WUHU216HW,2013-12-12 02:43:00,
2013-12-11 21:48:00,36.1,23.6,0.00,NW,315,0.0,0.0,60,0.00,,,0.00,WUHU216HW,2013-12-12 02:48:00,
2013-12-11 21:53:00,35.9,23.5,0.00,NW,315,0.0,0.0,60,0.00,,,0.00,WUHU216HW,2013-12-12 02:53:00,
2013-12-11 21:58:00,36.1,23.6,0.00,NW,315,0.0,0.0,60,0.00,,,0.00,WUHU216HW,2013-12-12 02:58:00,
2013-12-11 22:03:00,36.1,23.6,0.00,SE,135,0.0,0.0,60,0.00,,,0.00,WUHU216HW,2013-12-12 03:03:00,
2013-12-11 22:08:00,36.1,24.0,0.00,SE,135,0.0,0.0,61,0.00,,,0.00,WUHU216HW,2013-12-12 03:08:00,
2013-12-11 22:13:00,36.1,24.0,0.00,SE,135,0.0,0.0,61,0.00,,,0.00,WUHU216HW,2013-12-12 03:13:00,
2013-12-11 22:18:00,35.9,23.8,0.00,SE,135,0.0,0.0,61,0.00,,,0.00,WUHU216HW,2013-12-12 03:18:00,
2013-12-11 22:23:00,36.1,24.0,0.00,SE,135,0.0,0.0,61,0.00,,,0.00,WUHU216HW,2013-12-12 03:23:00,
2013-12-11 22:28:00,36.1,24.0,0.00,SE,135,0.0,0.0,61,0.00,,,0.00,WUHU216HW,2013-12-12 03:28:00,
2013-12-11 22:33:00,36.1,24.0,0.00,SE,135,0.0,0.0,61,0.00,,,0.00,WUHU216HW,2013-12-12 03:33:00,
2013-12-11 22:38:00,35.9,23.8,0.00,SE,135,0.0,0.0,61,0.00,,,0.00,WUHU216HW,2013-12-12 03:38:00,
2013-12-11 22:43:00,35.9,23.8,0.00,SE,135,0.0,0.0,61,0.00,,,0.00,WUHU216HW,2013-12-12 03:43:00,
2013-12-11 22:48:00,35.7,23.7,0.00,South,180,0.0,0.0,61,0.00,,,0.00,WUHU216HW,2013-12-12 03:48:00,
2013-12-11 22:53:00,35.7,24.0,0.00,SSE,158,0.0,0.0,62,0.00,,,0.00,WUHU216HW,2013-12-12 03:53:00,
2013-12-11 22:58:00,35.7,24.0,0.00,South,180,0.0,0.0,62,0.00,,,0.00,WUHU216HW,2013-12-12 03:58:00,
2013-12-11 23:03:00,35.4,23.7,0.00,South,180,0.0,0.0,62,0.00,,,0.00,WUHU216HW,2013-12-12 04:03:00,
2013-12-11 23:08:00,35.4,24.0,0.00,SSE,158,0.0,0.0,63,0.00,,,0.00,WUHU216HW,2013-12-12 04:08:00,
2013-12-11 23:13:00,35.4,23.7,0.00,ESE,113,0.0,0.0,62,0.00,,,0.00,WUHU216HW,2013-12-12 04:13:00,
2013-12-11 23:18:00,35.2,23.9,0.00,South,180,0.0,0.0,63,0.00,,,0.00,WUHU216HW,2013-12-12 04:18:00,
2013-12-11 23:23:00,35.2,23.9,0.00,SSE,158,0.0,0.0,63,0.00,,,0.00,WUHU216HW,2013-12-12 04:23:00,
2013-12-11 23:28:00,35.2,23.9,0.00,SSE,158,0.0,0.0,63,0.00,,,0.00,WUHU216HW,2013-12-12 04:28:00,
2013-12-11 23:33:00,34.8,23.5,0.00,West,270,0.0,0.0,63,0.00,,,0.00,WUHU216HW,2013-12-12 04:33:00,
2013-12-11 23:38:00,34.8,23.1,0.00,SE,135,0.0,0.0,62,0.00,,,0.00,WUHU216HW,2013-12-12 04:38:00,
2013-12-11 23:43:00,34.8,23.1,0.00,South,180,0.0,2.9,62,0.00,,,0.00,WUHU216HW,2013-12-12 04:43:00,
2013-12-11 23:48:00,34.7,23.0,0.00,SSE,158,0.0,2.9,62,0.00,,,0.00,WUHU216HW,2013-12-12 04:48:00,
2013-12-11 23:53:00,34.5,23.1,0.00,SSE,158,3.8,3.8,63,0.00,,,0.00,WUHU216HW,2013-12-12 04:53:00,
2013-12-11 23:58:00,34.3,23.0,0.00,SSE,158,0.0,3.8,63,0.00,,,0.00,WUHU216HW,2013-12-12 04:58:00,